createdAt,value
2016-06-17T00:00:55.072Z,47.63
2016-06-17T00:01:56.201Z,47.72
2016-06-17T00:02:55.095Z,47.72
2016-06-17T00:03:55.895Z,47.43
2016-06-17T00:04:55.118Z,47.63
2016-06-17T00:05:55.122Z,47.72
2016-06-17T00:06:55.125Z,47.72
2016-06-17T00:07:55.128Z,47.43
2016-06-17T00:08:55.132Z,47.43
2016-06-17T00:09:55.135Z,47.43
2016-06-17T00:10:55.154Z,47.63
2016-06-17T00:11:55.157Z,47.81
2016-06-17T00:12:56.318Z,47.81
2016-06-17T00:13:55.008Z,47.72
2016-06-17T00:14:55.980Z,47.91
2016-06-17T00:15:55.015Z,47.81
2016-06-17T00:16:55.191Z,47.81
2016-06-17T00:17:55.194Z,47.91
2016-06-17T00:18:55.197Z,47.53
2016-06-17T00:19:55.045Z,47.43
2016-06-17T00:20:55.204Z,47.53
2016-06-17T00:21:55.224Z,47.81
2016-06-17T00:22:55.227Z,47.72
2016-06-17T00:23:56.277Z,47.81
2016-06-17T00:24:55.234Z,47.43
2016-06-17T00:25:55.894Z,47.63
2016-06-17T00:26:55.256Z,47.81
2016-06-17T00:27:55.260Z,47.63
2016-06-17T00:28:55.263Z,47.53
2016-06-17T00:29:55.266Z,47.91
2016-06-17T00:30:55.301Z,47.91
2016-06-17T00:31:55.289Z,47.72
2016-06-17T00:32:55.293Z,47.63
2016-06-17T00:33:55.296Z,47.91
2016-06-17T00:34:56.253Z,47.63
2016-06-17T00:35:55.303Z,47.43
2016-06-17T00:36:55.916Z,47.81
2016-06-17T00:37:55.325Z,47.81
2016-06-17T00:38:55.173Z,47.63
2016-06-17T00:39:55.332Z,47.81
2016-06-17T00:40:55.335Z,47.63
2016-06-17T00:41:55.371Z,47.63
2016-06-17T00:42:55.359Z,47.81
2016-06-17T00:43:55.362Z,47.63
2016-06-17T00:44:55.365Z,47.72
2016-06-17T00:45:55.368Z,47.72
2016-06-17T00:46:55.231Z,47.63
2016-06-17T00:47:56.189Z,47.53
2016-06-17T00:48:55.395Z,47.72
2016-06-17T00:49:55.507Z,47.81
2016-06-17T00:50:55.463Z,48.49
2016-06-17T00:51:55.419Z,47.91
2016-06-17T00:52:55.422Z,47.81
2016-06-17T00:53:55.269Z,47.63
2016-06-17T00:54:55.428Z,47.43
2016-06-17T00:55:55.291Z,47.63
2016-06-17T00:56:55.450Z,47.72
2016-06-17T00:57:55.454Z,47.81
2016-06-17T00:58:56.113Z,47.81
2016-06-17T00:59:55.461Z,47.91
2016-06-17T01:00:55.464Z,47.81
2016-06-17T01:01:55.483Z,47.91
2016-06-17T01:02:55.487Z,48.01
2016-06-17T01:03:55.490Z,47.91
2016-06-17T01:04:55.336Z,47.81
2016-06-17T01:05:55.356Z,47.72
2016-06-17T01:06:55.501Z,47.81
2016-06-17T01:07:55.363Z,47.53
2016-06-17T01:08:55.523Z,47.72
2016-06-17T01:09:56.339Z,47.81
2016-06-17T01:10:55.529Z,47.63
2016-06-17T01:11:55.549Z,47.63
2016-06-17T01:12:55.552Z,47.81
2016-06-17T01:13:55.555Z,47.81
2016-06-17T01:14:55.403Z,47.81
2016-06-17T01:15:55.563Z,47.81
2016-06-17T01:16:55.566Z,47.81
2016-06-17T01:17:55.569Z,47.72
2016-06-17T01:18:55.635Z,47.91
2016-06-17T01:19:55.591Z,47.72
2016-06-17T01:20:56.549Z,47.91
2016-06-17T01:21:55.615Z,47.53
2016-06-17T01:22:55.617Z,48.3
2016-06-17T01:23:55.622Z,47.81
2016-06-17T01:24:55.624Z,47.43
2016-06-17T01:25:55.628Z,47.91
2016-06-17T01:26:55.476Z,48.3
2016-06-17T01:27:55.651Z,47.53
2016-06-17T01:28:55.654Z,47.91
2016-06-17T01:29:55.658Z,48.21
2016-06-17T01:30:55.661Z,47.8
2016-06-17T01:31:56.352Z,47.72
2016-06-17T01:32:55.669Z,47.91
2016-06-17T01:33:55.686Z,48.39
2016-06-17T01:34:55.534Z,47.72
2016-06-17T01:35:55.538Z,47.91
2016-06-17T01:36:55.698Z,47.81
2016-06-17T01:37:55.561Z,48.3
2016-06-17T01:38:55.705Z,47.91
2016-06-17T01:39:55.723Z,47.91
2016-06-17T01:40:55.836Z,47.91
2016-06-17T01:41:55.575Z,48.3
2016-06-17T01:42:56.718Z,48.3
2016-06-17T01:43:55.738Z,48.18
2016-06-17T01:44:55.757Z,48.21
2016-06-17T01:45:55.775Z,48.37
2016-06-17T01:46:55.779Z,47.91
2016-06-17T01:47:55.768Z,48.28
2016-06-17T01:48:55.785Z,48.47
2016-06-17T01:49:55.836Z,48.37
2016-06-17T01:50:55.793Z,48.3
2016-06-17T01:51:55.796Z,47.91
2016-06-17T01:52:55.800Z,48.3
2016-06-17T01:53:56.647Z,48.3
2016-06-17T01:54:55.822Z,48.18
2016-06-17T01:55:55.826Z,48.37
2016-06-17T01:56:55.847Z,48.37
2016-06-17T01:57:55.837Z,48.3
2016-06-17T01:58:55.856Z,48.08
2016-06-17T01:59:55.861Z,47.6
2016-06-17T02:00:55.866Z,47.8
2016-06-17T02:01:55.870Z,47.5
2016-06-17T02:02:55.874Z,47.81
2016-06-17T02:03:55.894Z,47.53
2016-06-17T02:04:56.678Z,47.5
2016-06-17T02:05:55.901Z,47.43
2016-06-17T02:06:55.905Z,47.43
2016-06-17T02:07:55.909Z,47.5
2016-06-17T02:08:55.929Z,47.43
2016-06-17T02:09:55.932Z,47.43
2016-06-17T02:10:55.936Z,47.41
2016-06-17T02:11:55.955Z,47.72
2016-06-17T02:12:55.944Z,47.7
2016-06-17T02:13:55.946Z,47.63
2016-06-17T02:14:55.965Z,47.7
2016-06-17T02:15:56.453Z,47.5
2016-06-17T02:16:55.972Z,47.72
2016-06-17T02:17:55.976Z,47.72
2016-06-17T02:18:55.979Z,47.6
2016-06-17T02:19:55.998Z,47.53
2016-06-17T02:20:56.002Z,47.43
2016-06-17T02:21:56.006Z,47.43
2016-06-17T02:22:56.008Z,47.8
2016-06-17T02:23:56.028Z,47.41
2016-06-17T02:24:56.032Z,47.7
2016-06-17T02:25:56.035Z,47.6
2016-06-17T02:26:56.476Z,47.53
2016-06-17T02:27:56.043Z,47.53
2016-06-17T02:28:56.045Z,47.63
2016-06-17T02:29:55.892Z,47.41
2016-06-17T02:30:55.912Z,47.41
2016-06-17T02:31:56.071Z,47.5
2016-06-17T02:32:55.919Z,47.7
2016-06-17T02:33:56.077Z,47.7
2016-06-17T02:34:56.097Z,47.41
2016-06-17T02:35:56.085Z,47.6
2016-06-17T02:36:56.105Z,47.41
2016-06-17T02:37:57.044Z,47.41
2016-06-17T02:38:56.111Z,47.6
2016-06-17T02:39:55.959Z,47.41
2016-06-17T02:40:56.133Z,47.7
2016-06-17T02:41:56.122Z,47.6
2016-06-17T02:42:56.125Z,47.41
2016-06-17T02:43:56.143Z,47.7
2016-06-17T02:44:56.147Z,47.41
2016-06-17T02:45:56.151Z,47.41
2016-06-17T02:46:56.154Z,47.6
2016-06-17T02:47:56.157Z,47.6
2016-06-17T02:48:56.990Z,47.7
2016-06-17T02:49:56.180Z,47.5
2016-06-17T02:50:56.231Z,47.41
2016-06-17T02:51:56.187Z,47.7
2016-06-17T02:52:56.190Z,47.41
2016-06-17T02:53:56.210Z,47.41
2016-06-17T02:54:56.057Z,47.6
2016-06-17T02:55:56.217Z,47.5
2016-06-17T02:56:56.063Z,47.43
2016-06-17T02:57:56.224Z,47.6
2016-06-17T02:58:56.227Z,47.5
2016-06-17T02:59:56.965Z,48.37
2016-06-17T03:00:56.249Z,47.91
2016-06-17T03:01:56.253Z,48.18
2016-06-17T03:02:56.256Z,48.47
2016-06-17T03:03:56.260Z,47.8
2016-06-17T03:04:56.107Z,48.28
2016-06-17T03:05:56.267Z,48.37
2016-06-17T03:06:56.286Z,48.28
2016-06-17T03:07:56.289Z,48.28
2016-06-17T03:08:56.293Z,48.08
2016-06-17T03:09:56.296Z,48.28
2016-06-17T03:10:57.112Z,48.37
2016-06-17T03:11:56.319Z,48.18
2016-06-17T03:12:56.323Z,48.08
2016-06-17T03:13:56.326Z,48.08
2016-06-17T03:14:56.330Z,48.08
2016-06-17T03:15:56.348Z,48.08
2016-06-17T03:16:56.337Z,47.99
2016-06-17T03:17:56.355Z,48.08
2016-06-17T03:18:56.358Z,48.08
2016-06-17T03:19:56.456Z,48.18
2016-06-17T03:20:56.381Z,48.08
2016-06-17T03:21:57.338Z,48.18
2016-06-17T03:22:56.389Z,48.28
2016-06-17T03:23:56.392Z,48.18
2016-06-17T03:24:56.395Z,48.18
2016-06-17T03:25:56.399Z,48.08
2016-06-17T03:26:56.402Z,48.18
2016-06-17T03:27:56.421Z,48.08
2016-06-17T03:28:56.440Z,48.08
2016-06-17T03:29:56.428Z,48.08
2016-06-17T03:30:56.525Z,48.18
2016-06-17T03:31:56.434Z,48.18
2016-06-17T03:32:57.392Z,48.08
2016-06-17T03:33:56.457Z,48.08
2016-06-17T03:34:56.460Z,48.08
2016-06-17T03:35:56.481Z,48.28
2016-06-17T03:36:56.467Z,48.08
2016-06-17T03:37:56.487Z,48.18
2016-06-17T03:38:56.475Z,48.08
2016-06-17T03:39:56.495Z,47.99
2016-06-17T03:40:56.497Z,48.08
2016-06-17T03:41:56.501Z,47.99
2016-06-17T03:42:56.504Z,47.99
2016-06-17T03:43:57.351Z,47.89
2016-06-17T03:44:56.371Z,47.89
2016-06-17T03:45:56.530Z,47.8
2016-06-17T03:46:56.378Z,48.08
2016-06-17T03:47:56.537Z,47.99
2016-06-17T03:48:56.541Z,48.08
2016-06-17T03:49:56.559Z,48.08
2016-06-17T03:50:56.610Z,48.18
2016-06-17T03:51:56.614Z,48.18
2016-06-17T03:52:56.414Z,47.99
2016-06-17T03:53:56.590Z,47.7
2016-06-17T03:54:56.608Z,47.8
2016-06-17T03:55:56.596Z,47.6
2016-06-17T03:56:56.600Z,47.7
2016-06-17T03:57:56.447Z,47.89
2016-06-17T03:58:56.607Z,47.8
2016-06-17T03:59:56.625Z,47.8
2016-06-17T04:00:56.629Z,47.7
2016-06-17T04:01:56.617Z,47.99
2016-06-17T04:02:56.652Z,47.6
2016-06-17T04:03:56.780Z,47.89
2016-06-17T04:04:56.642Z,47.89
2016-06-17T04:05:57.631Z,48.08
2016-06-17T04:06:56.666Z,47.89
2016-06-17T04:07:56.669Z,48.08
2016-06-17T04:08:56.672Z,48.08
2016-06-17T04:09:56.676Z,48.08
2016-06-17T04:10:56.694Z,48.18
2016-06-17T04:11:56.698Z,47.99
2016-06-17T04:12:56.704Z,48.08
2016-06-17T04:13:56.711Z,48.18
2016-06-17T04:14:56.922Z,48.08
2016-06-17T04:15:56.725Z,47.89
2016-06-17T04:16:56.731Z,47.7
2016-06-17T04:17:56.737Z,47.8
2016-06-17T04:18:56.757Z,47.8
2016-06-17T04:19:56.762Z,47.89
2016-06-17T04:20:56.766Z,47.6
2016-06-17T04:21:56.787Z,47.7
2016-06-17T04:22:56.776Z,47.89
2016-06-17T04:23:56.795Z,47.89
2016-06-17T04:24:56.799Z,48.08
2016-06-17T04:25:57.068Z,48.08
2016-06-17T04:26:56.821Z,48.08
2016-06-17T04:27:56.825Z,47.99
2016-06-17T04:28:56.829Z,47.8
2016-06-17T04:29:56.833Z,47.8
2016-06-17T04:30:56.837Z,47.6
2016-06-17T04:31:56.840Z,47.89
2016-06-17T04:32:56.845Z,47.8
2016-06-17T04:33:56.863Z,47.8
2016-06-17T04:34:56.867Z,47.8
2016-06-17T04:35:56.871Z,47.8
2016-06-17T04:36:57.281Z,47.89
2016-06-17T04:37:56.877Z,47.99
2016-06-17T04:38:56.897Z,47.7
2016-06-17T04:39:56.900Z,48.08
2016-06-17T04:40:56.904Z,47.89
2016-06-17T04:41:56.908Z,47.99
2016-06-17T04:42:56.753Z,47.99
2016-06-17T04:43:56.929Z,47.89
2016-06-17T04:44:56.932Z,48.28
2016-06-17T04:45:56.937Z,48.08
2016-06-17T04:46:56.940Z,48.18
2016-06-17T04:47:57.350Z,48.08
2016-06-17T04:48:56.790Z,48.08
2016-06-17T04:49:56.950Z,48.08
2016-06-17T04:50:56.969Z,48.08
2016-06-17T04:51:57.020Z,48.18
2016-06-17T04:52:56.992Z,48.08
2016-06-17T04:53:56.839Z,48.08
2016-06-17T04:54:56.998Z,48.08
2016-06-17T04:55:56.987Z,48.08
2016-06-17T04:56:57.006Z,48.08
2016-06-17T04:57:56.853Z,48.08
2016-06-17T04:58:57.670Z,48.08
2016-06-17T04:59:57.031Z,48.18
2016-06-17T05:00:57.019Z,48.18
2016-06-17T05:01:57.039Z,48.28
2016-06-17T05:02:57.042Z,48.08
2016-06-17T05:03:57.046Z,48.08
2016-06-17T05:04:57.049Z,47.99
2016-06-17T05:05:56.911Z,48.08
2016-06-17T05:06:57.072Z,48.28
2016-06-17T05:07:57.076Z,47.89
2016-06-17T05:08:57.094Z,48.28
2016-06-17T05:09:57.786Z,48.47
2016-06-17T05:10:57.085Z,48.18
2016-06-17T05:11:57.104Z,47.99
2016-06-17T05:12:57.108Z,48.18
2016-06-17T05:13:57.111Z,48.18
2016-06-17T05:14:57.115Z,48.18
2016-06-17T05:15:56.978Z,48.28
2016-06-17T05:16:56.981Z,48.18
2016-06-17T05:17:57.141Z,47.99
2016-06-17T05:18:57.144Z,48.18
2016-06-17T05:19:57.148Z,48.18
2016-06-17T05:20:57.808Z,48.18
2016-06-17T05:21:57.170Z,48.08
2016-06-17T05:22:57.174Z,48.18
2016-06-17T05:23:57.177Z,48.08
2016-06-17T05:24:57.181Z,48.18
2016-06-17T05:25:57.372Z,47.99
2016-06-17T05:26:57.031Z,48.08
2016-06-17T05:27:57.207Z,48.08
2016-06-17T05:28:57.210Z,48.08
2016-06-17T05:29:57.058Z,48.18
2016-06-17T05:30:57.217Z,48.08
2016-06-17T05:31:58.049Z,48.37
2016-06-17T05:32:57.240Z,48.18
2016-06-17T05:33:57.243Z,48.08
2016-06-17T05:34:57.247Z,48.08
2016-06-17T05:35:57.250Z,48.28
2016-06-17T05:36:57.254Z,48.08
2016-06-17T05:37:57.272Z,48.08
2016-06-17T05:38:57.276Z,48.28
2016-06-17T05:39:57.279Z,48.08
2016-06-17T05:40:57.126Z,48.08
2016-06-17T05:41:57.130Z,48.08
2016-06-17T05:42:58.149Z,48.37
2016-06-17T05:43:57.153Z,48.37
2016-06-17T05:44:57.312Z,48.18
2016-06-17T05:45:57.316Z,47.99
2016-06-17T05:46:57.319Z,48.18
2016-06-17T05:47:57.339Z,48.28
2016-06-17T05:48:57.342Z,48.28
2016-06-17T05:49:57.346Z,47.89
2016-06-17T05:50:57.349Z,48.18
2016-06-17T05:51:57.352Z,48.18
2016-06-17T05:52:57.215Z,48.08
2016-06-17T05:53:58.359Z,48.18
2016-06-17T05:54:57.378Z,48.18
2016-06-17T05:55:57.381Z,47.89
2016-06-17T05:56:57.229Z,47.5
2016-06-17T05:57:57.388Z,47.6
2016-06-17T05:58:57.423Z,47.8
2016-06-17T05:59:57.412Z,47.8
2016-06-17T06:00:57.414Z,47.8
2016-06-17T06:01:57.418Z,47.6
2016-06-17T06:02:57.438Z,47.8
2016-06-17T06:03:57.441Z,47.6
2016-06-17T06:04:57.897Z,47.41
2016-06-17T06:05:57.462Z,47.41
2016-06-17T06:06:57.654Z,47.6
2016-06-17T06:07:57.455Z,47.8
2016-06-17T06:08:57.459Z,47.8
2016-06-17T06:09:57.476Z,47.6
2016-06-17T06:10:57.324Z,48.28
2016-06-17T06:11:57.483Z,48.28
2016-06-17T06:12:57.503Z,48.28
2016-06-17T06:13:57.491Z,48.18
2016-06-17T06:14:57.510Z,48.18
2016-06-17T06:15:58.091Z,48.08
2016-06-17T06:16:57.361Z,48.28
2016-06-17T06:17:57.926Z,48.18
2016-06-17T06:18:57.383Z,47.89
2016-06-17T06:19:57.543Z,48.28
2016-06-17T06:20:57.545Z,47.8
2016-06-17T06:21:57.566Z,48.28
2016-06-17T06:22:57.568Z,48.28
2016-06-17T06:23:57.556Z,48.28
2016-06-17T06:24:57.576Z,48.28
2016-06-17T06:25:57.579Z,47.89
2016-06-17T06:26:58.552Z,48.28
2016-06-17T06:27:57.586Z,48.28
2016-06-17T06:28:58.496Z,48.18
2016-06-17T06:29:57.614Z,48.28
2016-06-17T06:30:57.623Z,47.89
2016-06-17T06:31:57.631Z,48.28
2016-06-17T06:32:57.640Z,48.47
2016-06-17T06:33:57.648Z,47.8
2016-06-17T06:34:57.653Z,47.7
2016-06-17T06:35:57.673Z,47.89
2016-06-17T06:36:57.678Z,48.28
2016-06-17T06:37:57.526Z,47.89
2016-06-17T06:38:57.688Z,48.47
2016-06-17T06:39:58.645Z,48.28
2016-06-17T06:40:57.713Z,47.89
2016-06-17T06:41:57.716Z,48.08
2016-06-17T06:42:57.737Z,48.28
2016-06-17T06:43:57.741Z,48.28
2016-06-17T06:44:57.744Z,48.37
2016-06-17T06:45:57.748Z,47.8
2016-06-17T06:46:57.751Z,47.89
2016-06-17T06:47:57.598Z,47.89
2016-06-17T06:48:57.758Z,48.08
2016-06-17T06:49:57.776Z,48.47
2016-06-17T06:50:58.874Z,48.37
2016-06-17T06:51:57.783Z,47.89
2016-06-17T06:52:57.787Z,47.89
2016-06-17T06:53:57.791Z,47.89
2016-06-17T06:54:57.857Z,47.89
2016-06-17T06:55:57.814Z,48.28
2016-06-17T06:56:57.816Z,47.5
2016-06-17T06:57:57.664Z,48.28
2016-06-17T06:58:57.839Z,48.37
2016-06-17T06:59:57.827Z,48.18
2016-06-17T07:00:57.675Z,48.18
2016-06-17T07:01:58.896Z,48.18
2016-06-17T07:02:57.696Z,48.18
2016-06-17T07:03:57.855Z,48.08
2016-06-17T07:04:57.859Z,48.08
2016-06-17T07:05:57.863Z,48.08
2016-06-17T07:06:57.883Z,48.08
2016-06-17T07:07:57.729Z,48.28
2016-06-17T07:08:57.889Z,48.08
2016-06-17T07:09:57.892Z,48.08
2016-06-17T07:10:57.912Z,48.08
2016-06-17T07:11:57.916Z,48.08
2016-06-17T07:12:57.762Z,48.08
2016-06-17T07:13:57.766Z,48.08
2016-06-17T07:14:57.926Z,48.08
2016-06-17T07:15:57.788Z,48.37
2016-06-17T07:16:57.948Z,48.08
2016-06-17T07:17:57.952Z,48.28
2016-06-17T07:18:57.954Z,48.08
2016-06-17T07:19:57.959Z,48.08
2016-06-17T07:20:57.821Z,48.18
2016-06-17T07:21:57.981Z,48.08
2016-06-17T07:22:57.969Z,48.18
2016-06-17T07:23:57.989Z,48.08
2016-06-17T07:24:57.836Z,48.08
2016-06-17T07:25:57.995Z,48.08
2016-06-17T07:26:57.998Z,48.18
2016-06-17T07:27:58.018Z,48.37
2016-06-17T07:28:58.022Z,48.28
2016-06-17T07:29:58.024Z,48.47
2016-06-17T07:30:57.919Z,47.89
2016-06-17T07:31:58.031Z,47.8
2016-06-17T07:32:58.035Z,47.8
2016-06-17T07:33:58.039Z,47.6
2016-06-17T07:34:58.058Z,47.6
2016-06-17T07:35:58.061Z,47.6
2016-06-17T07:36:58.080Z,47.5
2016-06-17T07:37:58.067Z,47.99
2016-06-17T07:38:58.087Z,47.89
2016-06-17T07:39:57.934Z,47.89
2016-06-17T07:40:58.094Z,47.89
2016-06-17T07:41:58.098Z,47.6
2016-06-17T07:42:58.100Z,48.08
2016-06-17T07:43:58.166Z,48.08
2016-06-17T07:44:58.123Z,47.7
2016-06-17T07:45:58.126Z,47.8
2016-06-17T07:46:58.130Z,47.5
2016-06-17T07:47:58.133Z,47.5
2016-06-17T07:48:58.153Z,47.5
2016-06-17T07:49:58.156Z,47.31
2016-06-17T07:50:58.018Z,47.5
2016-06-17T07:51:58.179Z,47.12
2016-06-17T07:52:58.167Z,47.31
2016-06-17T07:53:58.279Z,47.6
2016-06-17T07:54:58.454Z,48.08
2016-06-17T07:55:58.193Z,47.99
2016-06-17T07:56:58.196Z,47.5
2016-06-17T07:57:58.200Z,47.99
2016-06-17T07:58:58.218Z,47.6
2016-06-17T07:59:58.222Z,47.99
2016-06-17T08:01:55.277Z,47.5
2016-06-17T08:05:01.865Z,47.99
2016-06-17T08:06:01.853Z,47.99
2016-06-17T08:07:01.247Z,47.22
2016-06-17T08:08:02.766Z,47.02
2016-06-17T08:09:01.879Z,47.22
2016-06-17T08:10:01.257Z,47.5
2016-06-17T08:11:01.261Z,47.5
2016-06-17T08:12:01.281Z,47.41
2016-06-17T08:13:01.282Z,47.22
2016-06-17T08:14:01.286Z,47.41
2016-06-17T08:15:01.305Z,47.41
2016-06-17T08:16:01.309Z,47.22
2016-06-17T08:17:01.312Z,47.41
2016-06-17T08:18:01.316Z,47.22
2016-06-17T08:19:01.320Z,47.41
2016-06-17T08:20:01.948Z,46.73
2016-06-17T08:21:01.326Z,46.83
2016-06-17T08:22:01.330Z,46.92
2016-06-17T08:23:01.349Z,47.12
2016-06-17T08:24:01.509Z,46.92
2016-06-17T08:25:01.996Z,46.92
2016-06-17T08:26:01.375Z,47.31
2016-06-17T08:27:01.378Z,47.22
2016-06-17T08:28:01.429Z,47.24
2016-06-17T08:29:02.010Z,47.12
2016-06-17T08:30:02.967Z,47.05
2016-06-17T08:31:01.392Z,46.95
2016-06-17T08:32:01.787Z,47.02
2016-06-17T08:33:01.416Z,47.02
2016-06-17T08:34:01.419Z,47.12
2016-06-17T08:35:01.439Z,47.02
2016-06-17T08:36:01.441Z,47.12
2016-06-17T08:37:01.445Z,47.02
2016-06-17T08:38:02.058Z,47.02
2016-06-17T08:39:01.498Z,47.05
2016-06-17T08:40:01.456Z,47.14
2016-06-17T08:41:03.068Z,47.02
2016-06-17T08:42:01.462Z,47.22
2016-06-17T08:43:01.481Z,47.22
2016-06-17T08:44:01.484Z,46.83
2016-06-17T08:44:23.640Z,47.31
2016-06-17T08:45:24.269Z,46.83
2016-06-17T08:46:23.663Z,46.83
2016-06-17T08:47:23.715Z,47.02
2016-06-17T08:48:23.718Z,46.83
2016-06-17T08:49:23.675Z,47.02
2016-06-17T08:50:23.694Z,46.83
2016-06-17T08:51:23.698Z,46.73
2016-06-17T08:52:23.702Z,46.85
2016-06-17T08:53:23.706Z,46.92
2016-06-17T08:54:23.708Z,47.12
2016-06-17T08:55:23.712Z,47.02
2016-06-17T08:56:23.731Z,46.92
2016-06-17T08:57:23.734Z,47.02
2016-06-17T08:58:24.364Z,46.83
2016-06-17T08:59:23.851Z,46.92
2016-06-17T09:00:24.417Z,46.92
2016-06-17T09:01:25.342Z,47.14
2016-06-17T09:02:24.377Z,46.92
2016-06-17T09:03:24.397Z,46.92
2016-06-17T09:04:23.791Z,46.92
2016-06-17T09:05:23.779Z,47.02
2016-06-17T09:06:24.407Z,46.83
2016-06-17T09:07:23.832Z,47.12
2016-06-17T09:08:23.805Z,46.92
2016-06-17T09:16:23.829Z,47.05
2016-06-17T09:17:24.458Z,47.12
2016-06-17T09:24:21.597Z,47.14
2016-06-17T09:25:20.991Z,47.22
2016-06-17T09:26:21.011Z,47.24
2016-06-17T09:27:21.546Z,46.95
2016-06-17T09:28:21.799Z,46.75
2016-06-17T09:29:21.318Z,46.73
2016-06-17T09:30:21.634Z,46.64
2016-06-17T09:31:21.028Z,46.66
2016-06-17T09:32:21.032Z,46.75
2016-06-17T09:33:21.051Z,46.75
2016-06-17T09:34:21.039Z,46.73
2016-06-17T09:35:21.058Z,46.75
2016-06-17T09:36:21.686Z,46.83
2016-06-17T09:37:21.689Z,46.92
2016-06-17T09:38:22.553Z,47.31
2016-06-17T09:39:21.088Z,47.31
2016-06-17T09:40:21.685Z,46.83
2016-06-17T09:41:21.096Z,47.12
2016-06-17T09:42:21.100Z,47.02
2016-06-17T09:43:21.120Z,46.95
2016-06-17T09:44:21.125Z,47.02
2016-06-17T09:45:21.115Z,47.02
2016-06-17T09:46:21.134Z,47.12
2016-06-17T09:47:21.763Z,47.22
2016-06-17T09:48:21.766Z,46.73
2016-06-17T09:49:22.256Z,47.12
2016-06-17T09:50:21.774Z,47.02
2016-06-17T09:51:22.169Z,47.22
2016-06-17T09:52:21.172Z,47.22
2016-06-17T09:53:21.223Z,47.12
2016-06-17T09:54:21.179Z,46.73
2016-06-17T09:55:21.183Z,47.31
2016-06-17T09:56:21.249Z,47.41
2016-06-17T09:57:21.205Z,47.5
2016-06-17T09:58:21.837Z,47.22
2016-06-17T09:59:21.218Z,47.02
2016-06-17T10:00:21.238Z,46.95
2016-06-17T10:01:21.245Z,46.85
2016-06-17T10:02:22.375Z,47.12
2016-06-17T10:03:21.255Z,47.02
2016-06-17T10:04:21.260Z,46.64
2016-06-17T10:05:21.889Z,46.64
2016-06-17T10:06:21.268Z,46.83
2016-06-17T10:07:21.288Z,46.56
2016-06-17T10:08:21.291Z,46.75
2016-06-17T10:09:21.296Z,46.73
2016-06-17T10:10:21.925Z,47.24
2016-06-17T10:11:21.320Z,47.31
2016-06-17T10:12:21.307Z,47.02
2016-06-17T10:13:22.498Z,47.02
2016-06-17T10:14:21.330Z,47.22
2016-06-17T10:15:21.960Z,47.12
2016-06-17T10:16:21.339Z,47.02
2016-06-17T10:17:21.374Z,46.83
2016-06-17T10:18:21.378Z,47.02
2016-06-17T10:19:21.366Z,46.95
2016-06-17T10:20:21.995Z,46.92
2016-06-17T10:21:21.390Z,46.83
2016-06-17T10:22:22.972Z,47.02
2016-06-17T10:23:21.398Z,47.12
2016-06-17T10:24:21.402Z,47.12
2016-06-17T10:25:22.045Z,46.83
2016-06-17T10:26:21.423Z,47.31
2016-06-17T10:27:21.427Z,46.75
2016-06-17T10:28:22.041Z,46.75
2016-06-17T10:29:21.450Z,46.85
2016-06-17T10:30:21.453Z,46.75
2016-06-17T10:31:21.551Z,46.75
2016-06-17T10:32:21.460Z,46.66
2016-06-17T10:33:21.463Z,46.75
2016-06-17T10:34:21.467Z,46.56
2016-06-17T10:35:21.471Z,46.95
2016-06-17T10:36:21.474Z,47.12
2016-06-17T10:37:21.494Z,47.02
2016-06-17T10:38:21.497Z,47.12
2016-06-17T10:39:22.126Z,46.73
2016-06-17T10:40:22.129Z,47.02
2016-06-17T10:41:21.522Z,46.85
2016-06-17T10:42:22.292Z,46.92
2016-06-17T10:43:21.530Z,47.22
2016-06-17T10:44:22.158Z,47.02
2016-06-17T10:45:21.536Z,47.02
2016-06-17T10:46:21.540Z,47.22
2016-06-17T10:47:21.559Z,47.24
2016-06-17T10:48:22.187Z,46.83
2016-06-17T10:49:21.567Z,47.02
2016-06-17T10:50:22.196Z,46.64
2016-06-17T10:51:21.591Z,47.31
2016-06-17T10:52:21.595Z,46.83
2016-06-17T10:53:22.052Z,46.85
2016-06-17T10:54:21.604Z,47.02
2016-06-17T10:55:22.232Z,47.02
2016-06-17T10:56:21.610Z,46.83
2016-06-17T10:57:21.628Z,47.02
2016-06-17T10:58:22.303Z,46.83
2016-06-17T10:59:21.635Z,46.83
2016-06-17T11:00:22.264Z,47.02
2016-06-17T11:01:21.642Z,47.02
2016-06-17T11:02:21.646Z,47.02
2016-06-17T11:03:21.665Z,46.92
2016-06-17T11:04:22.168Z,47.02
2016-06-17T11:05:22.298Z,46.92
2016-06-17T11:06:22.300Z,47.02
2016-06-17T11:07:21.691Z,46.92
2016-06-17T11:08:21.694Z,47.02
2016-06-17T11:09:21.696Z,47.02
2016-06-17T11:10:21.715Z,46.95
2016-06-17T11:11:22.327Z,46.83
2016-06-17T11:12:21.721Z,47.31
2016-06-17T11:13:21.721Z,47.02
2016-06-17T11:14:21.724Z,47.31
2016-06-17T11:15:22.433Z,47.31
2016-06-17T11:16:21.730Z,47.31
2016-06-17T11:17:22.362Z,47.14
2016-06-17T11:18:22.381Z,47.31
2016-06-17T11:19:21.756Z,47.24
2016-06-17T11:20:21.760Z,46.66
2016-06-17T11:21:22.391Z,46.95
2016-06-17T11:22:21.781Z,46.73
2016-06-17T11:23:21.785Z,46.75
2016-06-17T11:24:22.399Z,47.14
2016-06-17T11:25:21.886Z,47.14
2016-06-17T11:26:23.562Z,46.85
2016-06-17T11:27:21.799Z,47.33
2016-06-17T11:28:22.724Z,47.81
2016-06-17T11:29:21.822Z,47.43
2016-06-17T11:30:21.825Z,48.18
2016-06-17T11:31:21.829Z,47.63
2016-06-17T11:32:21.832Z,47.81
2016-06-17T11:33:22.460Z,48.01
2016-06-17T11:34:21.856Z,48.01
2016-06-17T11:35:21.859Z,49.05
2016-06-17T11:36:22.471Z,49.73
2016-06-17T11:37:23.272Z,49.32
2016-06-17T11:38:21.884Z,49.82
2016-06-17T11:39:22.966Z,49.92
2016-06-17T11:40:21.892Z,49.9
2016-06-17T11:41:21.894Z,49.99
2016-06-17T11:42:21.898Z,50.38
2016-06-17T11:43:21.900Z,50.67
2016-06-17T11:44:21.934Z,50.47
2016-06-17T11:45:22.532Z,50.45
2016-06-17T11:46:21.957Z,50.18
2016-06-17T11:47:21.913Z,50.57
2016-06-17T11:48:21.915Z,50.57
2016-06-17T11:49:21.935Z,50.57
2016-06-17T11:50:21.938Z,50.18
2016-06-17T11:51:21.941Z,50.18
2016-06-17T11:52:22.585Z,50.47
2016-06-17T11:53:21.979Z,50.18
2016-06-17T11:54:21.951Z,50.09
2016-06-17T11:55:22.595Z,50.18
2016-06-17T11:56:21.974Z,50.09
2016-06-17T11:57:21.993Z,50.47
2016-06-17T11:58:22.653Z,50.09
2016-06-17T11:59:22.609Z,49.41
2016-06-17T12:00:22.612Z,49.9
2016-06-17T12:01:21.991Z,49.99
2016-06-17T12:02:21.994Z,50.47
2016-06-17T12:03:21.998Z,50.38
2016-06-17T12:04:22.018Z,49.9
2016-06-17T12:05:22.630Z,50.09
2016-06-17T12:06:22.633Z,49.7
2016-06-17T12:07:22.028Z,49.02
2016-06-17T12:08:22.031Z,48.93
2016-06-17T12:09:22.644Z,49.02
2016-06-17T12:10:22.788Z,48.93
2016-06-17T12:11:22.058Z,49.41
2016-06-17T12:12:22.045Z,49.12
2016-06-17T12:13:22.064Z,48.93
2016-06-17T12:14:22.068Z,49.02
2016-06-17T12:15:22.072Z,48.57
2016-06-17T12:16:22.079Z,48.16
2016-06-17T12:17:22.085Z,48.06
2016-06-17T12:18:22.091Z,48.08
2016-06-17T12:19:22.098Z,48.08
2016-06-17T12:20:22.102Z,48.37
2016-06-17T12:21:23.217Z,47.99
2016-06-17T12:22:22.127Z,47.96
2016-06-17T12:23:22.132Z,48.44
2016-06-17T12:24:22.136Z,48.16
2016-06-17T12:25:22.140Z,48.25
2016-06-17T12:26:22.144Z,47.96
2016-06-17T12:27:22.148Z,48.35
2016-06-17T12:28:22.152Z,48.47
2016-06-17T12:29:22.172Z,48.47
2016-06-17T12:30:22.160Z,48.18
2016-06-17T12:31:22.179Z,48.28
2016-06-17T12:32:22.183Z,48.08
2016-06-17T12:33:22.169Z,48.47
2016-06-17T12:34:23.095Z,47.8
2016-06-17T12:35:22.193Z,47.8
2016-06-17T12:36:22.821Z,47.8
2016-06-17T12:37:22.200Z,48.08
2016-06-17T12:38:22.203Z,47.99
2016-06-17T12:39:22.222Z,48.08
2016-06-17T12:40:22.210Z,47.5
2016-06-17T12:41:22.245Z,47.5
2016-06-17T12:42:22.858Z,47.31
2016-06-17T12:43:22.861Z,47.22
2016-06-17T12:44:22.255Z,47.5
2016-06-17T12:45:23.774Z,47.31
2016-06-17T12:46:22.262Z,48.08
2016-06-17T12:47:22.265Z,47.89
2016-06-17T12:48:22.878Z,47.99
2016-06-17T12:49:22.257Z,48.28
2016-06-17T12:50:22.292Z,48.08
2016-06-17T12:51:22.279Z,47.5
2016-06-17T12:52:22.299Z,48.28
2016-06-17T12:53:22.302Z,48.08
2016-06-17T12:54:22.353Z,47.8
2016-06-17T12:55:22.918Z,48.37
2016-06-17T12:56:22.312Z,47.8
2016-06-17T12:57:22.316Z,47.8
2016-06-17T12:58:22.319Z,47.99
2016-06-17T12:59:22.948Z,47.7
2016-06-17T13:00:22.998Z,47.5
2016-06-17T13:01:22.344Z,47.6
2016-06-17T13:02:22.333Z,47.5
2016-06-17T13:03:22.352Z,48.08
2016-06-17T13:04:22.355Z,47.31
2016-06-17T13:05:23.078Z,47.12
2016-06-17T13:06:22.362Z,47.31
2016-06-17T13:07:22.365Z,46.83
2016-06-17T13:08:22.384Z,47.05
2016-06-17T13:09:22.388Z,46.64
2016-06-17T13:10:23.017Z,46.95
2016-06-17T13:11:22.395Z,47.22
2016-06-17T13:12:22.399Z,46.92